createdAt,value
2023-02-17T00:01:27.172Z,3.85
2023-02-17T00:03:54.381Z,3.67
2023-02-17T00:06:23.924Z,4.03
2023-02-17T00:08:50.636Z,4.18
2023-02-17T00:11:18.277Z,4.10
2023-02-17T00:13:45.610Z,4.07
2023-02-17T00:16:18.870Z,3.83
2023-02-17T00:18:46.466Z,3.90
2023-02-17T00:21:16.749Z,4.03
2023-02-17T00:23:43.441Z,4.20
2023-02-17T00:26:10.049Z,4.03
2023-02-17T00:28:36.855Z,3.10
2023-02-17T00:31:13.656Z,3.42
2023-02-17T00:33:40.505Z,3.90
2023-02-17T00:36:10.611Z,3.70
2023-02-17T00:38:37.289Z,3.28
2023-02-17T00:41:06.643Z,3.83
2023-02-17T00:43:33.188Z,4.65
2023-02-17T00:46:00.148Z,4.22
2023-02-17T00:48:26.743Z,4.95
2023-02-17T00:50:53.267Z,4.30
2023-02-17T00:53:20.509Z,4.25
2023-02-17T00:55:47.173Z,4.03
2023-02-17T00:58:14.160Z,5.15
2023-02-17T01:00:40.674Z,4.65
2023-02-17T01:03:08.173Z,4.43
2023-02-17T01:05:34.973Z,4.57
2023-02-17T01:08:01.479Z,4.22
2023-02-17T01:10:28.032Z,4.97
2023-02-17T01:12:54.612Z,4.03
2023-02-17T01:15:21.122Z,4.22
2023-02-17T01:17:47.676Z,4.10
2023-02-17T01:20:14.891Z,3.95
2023-02-17T01:22:41.489Z,3.95
2023-02-17T01:25:11.217Z,4.20
2023-02-17T01:27:40.623Z,5.47
2023-02-17T01:30:08.803Z,4.70
2023-02-17T01:32:39.717Z,4.50
2023-02-17T01:35:06.609Z,4.13
2023-02-17T01:37:33.804Z,4.65
2023-02-17T01:40:00.339Z,3.90
2023-02-17T01:42:27.025Z,4.38
2023-02-17T01:45:18.454Z,3.88
2023-02-17T01:48:06.243Z,4.22
2023-02-17T01:50:36.936Z,3.95
2023-02-17T01:53:07.536Z,3.95
2023-02-17T01:55:35.948Z,4.78
2023-02-17T01:58:04.875Z,4.22
2023-02-17T02:00:33.480Z,4.07
2023-02-17T02:03:02.259Z,3.40
2023-02-17T02:05:29.401Z,4.00
2023-02-17T02:07:56.992Z,3.92
2023-02-17T02:10:24.753Z,3.63
2023-02-17T02:12:51.285Z,3.88
2023-02-17T02:15:21.276Z,4.43
2023-02-17T02:18:16.136Z,3.60
2023-02-17T02:21:12.425Z,3.80
2023-02-17T02:24:06.418Z,3.90
2023-02-17T02:26:56.658Z,4.13
2023-02-17T02:30:02.272Z,3.85
2023-02-17T02:32:49.666Z,3.33
2023-02-17T02:35:37.660Z,3.97
2023-02-17T02:38:17.073Z,3.42
2023-02-17T02:40:49.878Z,3.50
2023-02-17T02:43:17.087Z,3.55
2023-02-17T02:45:46.390Z,3.80
2023-02-17T02:48:16.027Z,4.07
2023-02-17T02:51:30.674Z,4.03
2023-02-17T02:54:00.137Z,4.43
2023-02-17T02:57:04.394Z,4.38
2023-02-17T03:00:05.663Z,4.18
2023-02-17T03:02:47.450Z,5.38
2023-02-17T03:05:18.737Z,4.13
2023-02-17T03:07:54.795Z,3.83
2023-02-17T03:10:22.201Z,4.13
2023-02-17T03:12:48.865Z,4.78
2023-02-17T03:15:30.224Z,4.32
2023-02-17T03:17:58.504Z,4.38
2023-02-17T03:20:36.147Z,4.45
2023-02-17T03:23:04.335Z,4.18
2023-02-17T03:25:30.855Z,4.63
2023-02-17T03:27:57.653Z,3.78
2023-02-17T03:30:24.195Z,3.92
2023-02-17T03:32:50.744Z,3.95
2023-02-17T03:35:17.315Z,4.10
2023-02-17T03:37:45.879Z,3.63
2023-02-17T03:40:12.399Z,3.88
2023-02-17T03:42:38.942Z,3.47
2023-02-17T03:45:05.862Z,3.20
2023-02-17T03:47:32.517Z,3.50
2023-02-17T03:49:59.040Z,3.85
2023-02-17T03:52:25.527Z,3.85
2023-02-17T03:54:52.673Z,4.15
2023-02-17T03:57:19.159Z,3.70
2023-02-17T03:59:48.647Z,4.25
2023-02-17T04:02:17.426Z,4.32
2023-02-17T04:04:43.921Z,4.32
2023-02-17T04:07:10.496Z,4.53
2023-02-17T04:09:36.963Z,4.03
2023-02-17T04:12:03.695Z,3.42
2023-02-17T04:14:30.182Z,4.82
2023-02-17T04:16:56.664Z,3.92
2023-02-17T04:19:23.140Z,4.25
2023-02-17T04:21:49.623Z,3.50
2023-02-17T04:24:18.515Z,3.17
2023-02-17T04:26:45.042Z,4.13
2023-02-17T04:29:11.592Z,3.45
2023-02-17T04:31:38.213Z,4.03
2023-02-17T04:34:04.839Z,3.53
2023-02-17T04:36:31.466Z,2.95
2023-02-17T04:38:57.976Z,3.42
2023-02-17T04:41:24.467Z,3.40
2023-02-17T04:43:50.946Z,3.97
2023-02-17T04:46:20.033Z,3.33
2023-02-17T04:48:46.638Z,3.67
2023-02-17T04:51:13.128Z,3.55
2023-02-17T04:53:39.622Z,3.30
2023-02-17T04:56:06.887Z,3.13
2023-02-17T04:58:33.521Z,3.60
2023-02-17T05:01:00.930Z,3.75
2023-02-17T05:03:27.537Z,3.40
2023-02-17T05:05:54.079Z,3.70
2023-02-17T05:08:22.095Z,3.65
2023-02-17T05:10:51.518Z,4.05
2023-02-17T05:13:21.170Z,3.45
2023-02-17T05:15:47.835Z,3.45
2023-02-17T05:18:14.397Z,3.90
2023-02-17T05:20:41.054Z,2.90
2023-02-17T05:23:07.534Z,3.05
2023-02-17T05:25:34.044Z,3.45
2023-02-17T05:28:00.648Z,3.50
2023-02-17T05:30:27.277Z,3.17
2023-02-17T05:32:56.527Z,3.25
2023-02-17T05:35:23.068Z,2.97
2023-02-17T05:37:52.754Z,3.85
2023-02-17T05:40:21.723Z,3.33
2023-02-17T05:42:48.233Z,3.40
2023-02-17T05:45:14.720Z,3.10
2023-02-17T05:47:41.197Z,3.05
2023-02-17T05:50:08.160Z,2.85
2023-02-17T05:52:34.653Z,3.22
2023-02-17T05:55:01.150Z,3.17
2023-02-17T05:57:27.754Z,3.80
2023-02-17T05:59:54.247Z,3.97
2023-02-17T06:02:23.751Z,3.60
2023-02-17T06:04:52.586Z,3.70
2023-02-17T06:07:22.454Z,3.15
2023-02-17T06:09:48.938Z,2.83
2023-02-17T06:12:15.456Z,3.25
2023-02-17T06:14:41.942Z,3.47
2023-02-17T06:17:08.518Z,3.08
2023-02-17T06:19:35.056Z,3.38
2023-02-17T06:22:01.575Z,2.90
2023-02-17T06:24:28.134Z,3.75
2023-02-17T06:26:54.641Z,3.40
2023-02-17T06:29:24.620Z,4.80
2023-02-17T06:31:56.849Z,3.42
2023-02-17T06:34:23.451Z,4.47
2023-02-17T06:36:52.927Z,3.40
2023-02-17T06:39:21.830Z,3.83
2023-02-17T06:41:48.490Z,3.80
2023-02-17T06:44:14.998Z,3.70
2023-02-17T06:46:41.580Z,3.22
2023-02-17T06:49:08.081Z,3.20
2023-02-17T06:51:34.569Z,3.60
2023-02-17T06:54:01.075Z,4.07
2023-02-17T06:56:27.607Z,4.22
2023-02-17T06:58:54.189Z,3.67
2023-02-17T07:01:28.434Z,4.03
2023-02-17T07:03:55.912Z,4.40
2023-02-17T07:06:24.171Z,4.20
2023-02-17T07:08:53.896Z,4.63
2023-02-17T07:11:21.298Z,3.80
2023-02-17T07:13:48.399Z,3.55
2023-02-17T07:16:16.361Z,3.38
2023-02-17T07:18:43.036Z,3.38
2023-02-17T07:21:10.162Z,4.35
2023-02-17T07:23:37.126Z,3.70
2023-02-17T07:26:06.708Z,3.85
2023-02-17T07:28:33.403Z,4.93
2023-02-17T07:31:09.087Z,4.05
2023-02-17T07:33:35.726Z,3.40
2023-02-17T07:36:07.406Z,3.63
2023-02-17T07:38:34.393Z,3.83
2023-02-17T07:41:23.326Z,3.92
2023-02-17T07:43:51.747Z,4.18
2023-02-17T07:46:18.410Z,3.97
2023-02-17T07:48:46.512Z,3.97
2023-02-17T07:51:18.948Z,3.90
2023-02-17T07:53:45.540Z,3.72
2023-02-17T07:56:15.583Z,3.60
2023-02-17T07:58:43.662Z,4.45
2023-02-17T08:01:12.800Z,3.67
2023-02-17T08:03:40.063Z,3.50
2023-02-17T08:06:15.502Z,4.60
2023-02-17T08:09:17.639Z,3.47
2023-02-17T08:12:02.763Z,3.78
2023-02-17T08:14:31.516Z,3.58
2023-02-17T08:16:58.649Z,3.30
2023-02-17T08:19:27.193Z,4.10
2023-02-17T08:21:56.590Z,3.58
2023-02-17T08:24:24.709Z,4.00
2023-02-17T08:26:54.022Z,3.63
2023-02-17T08:29:24.095Z,3.33
2023-02-17T08:31:53.817Z,5.00
2023-02-17T08:34:21.670Z,3.40
2023-02-17T08:36:48.252Z,4.47
2023-02-17T08:39:17.452Z,3.53
2023-02-17T08:41:45.034Z,3.47
2023-02-17T08:44:16.293Z,3.50
2023-02-17T08:46:44.695Z,3.92
2023-02-17T08:49:11.598Z,4.25
2023-02-17T08:51:38.374Z,3.15
2023-02-17T08:54:07.297Z,3.17
2023-02-17T08:56:34.799Z,4.50
2023-02-17T08:59:01.607Z,3.65
2023-02-17T09:01:28.244Z,3.53
2023-02-17T09:03:57.269Z,3.20
2023-02-17T09:06:24.134Z,3.50
2023-02-17T09:08:54.732Z,3.40
2023-02-17T09:11:22.066Z,2.75
2023-02-17T09:13:48.644Z,3.05
2023-02-17T09:16:15.424Z,3.03
2023-02-17T09:18:42.084Z,3.40
2023-02-17T09:21:11.038Z,2.90
2023-02-17T09:23:37.863Z,3.35
2023-02-17T09:26:07.412Z,3.05
2023-02-17T09:28:34.517Z,3.63
2023-02-17T09:31:25.710Z,3.47
2023-02-17T09:33:52.882Z,3.53
2023-02-17T09:36:28.356Z,2.90
2023-02-17T09:38:55.728Z,3.10
2023-02-17T09:41:24.311Z,3.00
2023-02-17T09:43:55.720Z,3.58
2023-02-17T09:46:36.585Z,2.90
2023-02-17T09:49:17.675Z,3.90
2023-02-17T09:51:53.685Z,3.53
2023-02-17T09:54:46.030Z,2.80
2023-02-17T09:57:21.815Z,3.00
2023-02-17T09:59:54.118Z,3.88
2023-02-17T10:02:40.478Z,2.97
2023-02-17T10:05:11.460Z,3.45
2023-02-17T10:07:52.075Z,3.20
2023-02-17T10:10:24.121Z,3.13
2023-02-17T10:12:56.052Z,3.05
2023-02-17T10:15:26.557Z,3.42
2023-02-17T10:18:16.237Z,3.20
2023-02-17T10:20:49.005Z,3.63
2023-02-17T10:23:24.764Z,2.97
2023-02-17T10:26:16.371Z,3.65
2023-02-17T10:29:01.917Z,2.83
2023-02-17T10:31:47.220Z,4.05
2023-02-17T10:34:32.521Z,3.90
2023-02-17T10:37:31.079Z,3.00
2023-02-17T10:39:58.662Z,4.53
2023-02-17T10:42:35.883Z,3.58
2023-02-17T10:45:15.418Z,3.78
2023-02-17T10:47:42.390Z,3.88
2023-02-17T10:50:22.171Z,4.20
2023-02-17T10:52:52.046Z,3.60
2023-02-17T10:55:36.998Z,4.28
2023-02-17T10:58:24.969Z,3.42
2023-02-17T11:00:56.448Z,3.90
2023-02-17T11:03:28.547Z,3.60
2023-02-17T11:05:56.578Z,3.35
2023-02-17T11:08:32.408Z,3.25
2023-02-17T11:11:07.057Z,3.80
2023-02-17T11:13:40.324Z,3.17
2023-02-17T11:16:07.533Z,3.92
2023-02-17T11:18:49.327Z,2.88
2023-02-17T11:21:15.912Z,2.97
2023-02-17T11:24:01.434Z,3.28
2023-02-17T11:26:31.344Z,3.58
2023-02-17T11:29:15.815Z,2.70
2023-02-17T11:31:42.551Z,3.47
2023-02-17T11:34:16.822Z,3.20
2023-02-17T11:36:57.001Z,3.55
2023-02-17T11:39:23.585Z,2.75
2023-02-17T11:41:52.597Z,2.88
2023-02-17T11:44:27.319Z,2.95
2023-02-17T11:47:12.912Z,3.58
2023-02-17T11:50:11.253Z,2.80
2023-02-17T11:53:02.134Z,2.42
2023-02-17T11:55:48.884Z,2.50
2023-02-17T11:58:44.664Z,3.72
2023-02-17T12:01:26.274Z,2.67
2023-02-17T12:03:58.807Z,3.17
2023-02-17T12:06:53.400Z,3.10
2023-02-17T12:09:47.679Z,2.90
2023-02-17T12:12:17.379Z,2.50
2023-02-17T12:15:26.043Z,2.60
2023-02-17T12:18:33.834Z,3.30
2023-02-17T12:21:19.488Z,2.85
2023-02-17T12:24:05.505Z,2.95
2023-02-17T12:26:45.433Z,2.72
2023-02-17T12:29:41.383Z,3.28
2023-02-17T12:32:27.692Z,3.00
2023-02-17T12:34:59.479Z,3.00
2023-02-17T12:37:31.679Z,2.38
2023-02-17T12:40:06.027Z,2.20
2023-02-17T12:42:41.410Z,2.45
2023-02-17T12:45:23.304Z,3.13
2023-02-17T12:47:56.311Z,3.15
2023-02-17T12:50:27.982Z,2.85
2023-02-17T12:52:59.517Z,3.33
2023-02-17T12:55:37.855Z,3.20
2023-02-17T12:58:12.260Z,3.15
2023-02-17T13:00:46.595Z,3.13
2023-02-17T13:03:13.460Z,3.13
2023-02-17T13:05:43.600Z,3.13
2023-02-17T13:11:11.109Z,2.97
2023-02-17T13:13:37.723Z,3.35
2023-02-17T13:16:13.039Z,3.15
2023-02-17T13:18:45.980Z,2.83
2023-02-17T13:21:16.246Z,3.30
2023-02-17T13:23:45.840Z,2.83
2023-02-17T13:26:20.629Z,3.13
2023-02-17T13:28:49.057Z,4.25
2023-02-17T13:31:25.038Z,2.83
2023-02-17T13:33:55.107Z,3.58
2023-02-17T13:36:36.681Z,3.13
2023-02-17T13:39:28.798Z,3.00
2023-02-17T13:41:59.951Z,2.70
2023-02-17T13:44:32.422Z,3.30
2023-02-17T13:47:03.150Z,2.80
2023-02-17T13:49:33.945Z,3.03
2023-02-17T13:52:23.339Z,2.80
2023-02-17T13:54:57.526Z,3.15
2023-02-17T13:57:29.852Z,3.30
2023-02-17T14:00:19.560Z,3.10
2023-02-17T14:02:58.094Z,3.03
2023-02-17T14:05:28.000Z,3.58
2023-02-17T14:08:00.352Z,3.00
2023-02-17T14:10:30.630Z,3.63
2023-02-17T14:12:59.245Z,3.85
2023-02-17T14:15:28.898Z,3.15
2023-02-17T14:17:58.299Z,3.35
2023-02-17T14:20:35.202Z,3.35
2023-02-17T14:23:05.962Z,3.70
2023-02-17T14:25:38.232Z,3.90
2023-02-17T14:28:17.298Z,4.35
2023-02-17T14:30:43.941Z,3.85
2023-02-17T14:33:16.384Z,3.72
2023-02-17T14:35:52.037Z,3.85
2023-02-17T14:38:25.060Z,3.45
2023-02-17T14:40:53.472Z,3.72
2023-02-17T14:43:20.207Z,4.22
2023-02-17T14:45:49.792Z,3.85
2023-02-17T14:48:16.292Z,3.35
2023-02-17T14:50:44.273Z,3.08
2023-02-17T14:53:32.699Z,3.25
2023-02-17T14:56:01.902Z,4.28
2023-02-17T14:58:29.403Z,3.30
2023-02-17T15:00:58.678Z,3.90
2023-02-17T15:03:27.614Z,3.60
2023-02-17T15:05:54.711Z,2.85
2023-02-17T15:08:34.926Z,3.15
2023-02-17T15:11:02.423Z,3.78
2023-02-17T15:13:29.249Z,3.75
2023-02-17T15:15:56.149Z,3.47
2023-02-17T15:18:23.156Z,3.67
2023-02-17T15:20:51.601Z,3.50
2023-02-17T15:23:21.178Z,3.38
2023-02-17T15:25:48.594Z,3.13
2023-02-17T15:28:17.618Z,3.55
2023-02-17T15:30:51.709Z,3.22
2023-02-17T15:33:18.566Z,3.40
2023-02-17T15:35:46.109Z,3.60
2023-02-17T15:38:14.254Z,4.10
2023-02-17T15:40:42.066Z,3.83
2023-02-17T15:43:16.994Z,4.60
2023-02-17T15:45:43.583Z,4.05
2023-02-17T15:48:25.222Z,3.45
2023-02-17T15:50:52.665Z,4.47
2023-02-17T15:53:19.735Z,4.10
2023-02-17T15:55:47.244Z,4.22
2023-02-17T15:58:19.385Z,4.25
2023-02-17T16:00:46.545Z,3.70
2023-02-17T16:03:14.609Z,4.22
2023-02-17T16:05:41.953Z,4.22
2023-02-17T16:08:08.962Z,4.10
2023-02-17T16:10:35.929Z,4.57
2023-02-17T16:13:04.719Z,4.15
2023-02-17T16:15:32.831Z,3.72
2023-02-17T16:17:59.953Z,3.83
2023-02-17T16:20:34.655Z,3.85
2023-02-17T16:23:02.398Z,4.18
2023-02-17T16:25:29.965Z,3.88
2023-02-17T16:27:57.799Z,4.32
2023-02-17T16:30:34.223Z,3.10
2023-02-17T16:33:02.072Z,3.80
2023-02-17T16:35:30.978Z,3.28
2023-02-17T16:38:05.392Z,3.92
2023-02-17T16:40:36.482Z,3.50
2023-02-17T16:43:03.272Z,3.80
2023-02-17T16:45:32.714Z,4.55
2023-02-17T16:48:01.235Z,4.57
2023-02-17T16:50:33.942Z,4.80
2023-02-17T16:53:03.956Z,4.53
2023-02-17T16:55:33.106Z,4.53
2023-02-17T16:58:00.350Z,4.10
2023-02-17T17:00:32.668Z,4.30
2023-02-17T17:02:59.498Z,4.00
2023-02-17T17:05:29.053Z,17.33
2023-02-17T17:07:59.826Z,3.97
2023-02-17T17:10:29.202Z,4.50
2023-02-17T17:12:58.531Z,3.53
2023-02-17T17:15:28.983Z,4.30
2023-02-17T17:18:04.819Z,4.38
2023-02-17T17:20:37.243Z,4.88
2023-02-17T17:23:06.634Z,3.90
2023-02-17T17:25:35.408Z,4.93
2023-02-17T17:28:01.891Z,3.88
2023-02-17T17:30:32.037Z,4.72
2023-02-17T17:32:59.211Z,4.28
2023-02-17T17:35:30.243Z,5.15
2023-02-17T17:38:01.173Z,5.90
2023-02-17T17:40:48.264Z,5.05
2023-02-17T17:43:17.288Z,5.07
2023-02-17T17:45:45.318Z,4.75
2023-02-17T17:48:17.034Z,5.95
2023-02-17T17:50:44.592Z,5.35
2023-02-17T17:53:11.251Z,6.25
2023-02-17T17:55:37.792Z,5.10
2023-02-17T17:58:04.395Z,5.07
2023-02-17T18:00:31.293Z,6.40
2023-02-17T18:03:00.886Z,6.10
2023-02-17T18:05:30.729Z,5.40
2023-02-17T18:07:59.225Z,5.30
2023-02-17T18:10:27.942Z,6.00
2023-02-17T18:12:54.563Z,6.47
2023-02-17T18:15:21.322Z,6.93
2023-02-17T18:17:49.213Z,7.40
2023-02-17T18:20:16.000Z,8.68
2023-02-17T18:22:42.656Z,8.23
2023-02-17T18:25:09.319Z,8.98
2023-02-17T18:27:45.565Z,8.73
2023-02-17T18:30:16.059Z,7.72
2023-02-17T18:32:44.284Z,8.18
2023-02-17T18:35:13.698Z,8.25
2023-02-17T18:37:43.992Z,7.32
2023-02-17T18:40:12.753Z,8.73
2023-02-17T18:42:40.954Z,9.13
2023-02-17T18:45:08.954Z,7.97
2023-02-17T18:47:35.706Z,8.75
2023-02-17T18:50:02.269Z,8.65
2023-02-17T18:52:29.655Z,8.27
2023-02-17T18:55:14.455Z,9.13
2023-02-17T18:57:59.935Z,8.25
2023-02-17T19:00:33.081Z,9.50
2023-02-17T19:03:00.055Z,8.75
2023-02-17T19:05:31.279Z,8.05
2023-02-17T19:08:00.712Z,9.38
2023-02-17T19:10:30.618Z,9.18
2023-02-17T19:12:58.617Z,7.78
2023-02-17T19:15:25.523Z,9.48
2023-02-17T19:18:04.141Z,10.00
2023-02-17T19:20:33.730Z,11.18
2023-02-17T19:23:02.365Z,9.02
2023-02-17T19:25:31.742Z,9.10
2023-02-17T19:28:02.239Z,10.25
2023-02-17T19:30:31.965Z,10.05
2023-02-17T19:33:01.538Z,8.65
2023-02-17T19:35:30.359Z,7.75
2023-02-17T19:37:56.871Z,9.07
2023-02-17T19:40:23.355Z,9.38
2023-02-17T19:42:49.850Z,8.32
2023-02-17T19:45:16.626Z,8.40
2023-02-17T19:47:43.086Z,6.80
2023-02-17T19:50:09.747Z,8.23
2023-02-17T19:52:37.779Z,7.82
2023-02-17T19:55:05.047Z,7.80
2023-02-17T19:57:31.705Z,7.80
2023-02-17T19:59:58.279Z,8.50
2023-02-17T20:02:24.908Z,8.38
2023-02-17T20:04:51.461Z,7.95
2023-02-17T20:07:18.027Z,8.50
2023-02-17T20:09:44.571Z,10.15
2023-02-17T20:12:11.217Z,8.43
2023-02-17T20:14:38.534Z,8.10
2023-02-17T20:17:05.305Z,8.25
2023-02-17T20:19:38.562Z,9.00
2023-02-17T20:22:06.558Z,8.48
2023-02-17T20:24:33.961Z,8.52
2023-02-17T20:27:03.551Z,7.72
2023-02-17T20:29:34.310Z,8.32
2023-02-17T20:32:05.625Z,7.68
2023-02-17T20:34:39.309Z,6.80
2023-02-17T20:37:07.058Z,6.95
2023-02-17T20:39:38.925Z,7.03
2023-02-17T20:42:05.882Z,7.32
2023-02-17T20:44:32.709Z,7.57
2023-02-17T20:47:02.164Z,7.80
2023-02-17T20:49:31.051Z,9.13
2023-02-17T20:51:57.711Z,7.28
2023-02-17T20:54:25.581Z,7.30
2023-02-17T20:56:52.447Z,8.02
2023-02-17T20:59:19.129Z,8.20
2023-02-17T21:01:45.991Z,8.07
2023-02-17T21:04:14.115Z,8.23
2023-02-17T21:06:41.414Z,7.43
2023-02-17T21:09:13.905Z,7.63
2023-02-17T21:11:40.957Z,7.78
2023-02-17T21:14:07.874Z,8.88
2023-02-17T21:16:34.509Z,9.38
2023-02-17T21:19:04.662Z,9.70
2023-02-17T21:21:34.540Z,9.95
2023-02-17T21:24:04.359Z,9.00
2023-02-17T21:26:33.014Z,8.70
2023-02-17T21:29:01.984Z,8.40
2023-02-17T21:31:34.597Z,9.75
2023-02-17T21:34:04.545Z,9.45
2023-02-17T21:36:33.899Z,8.98
2023-02-17T21:39:04.614Z,8.20
2023-02-17T21:41:34.043Z,7.40
2023-02-17T21:44:20.303Z,9.38
2023-02-17T21:46:46.919Z,7.90
2023-02-17T21:49:14.243Z,8.00
2023-02-17T21:51:41.453Z,8.13
2023-02-17T21:54:09.586Z,8.40
2023-02-17T21:56:36.477Z,8.30
2023-02-17T21:59:06.102Z,7.60
2023-02-17T22:01:35.452Z,6.72
2023-02-17T22:04:04.951Z,6.72
2023-02-17T22:06:36.396Z,7.22
2023-02-17T22:09:08.576Z,7.55
2023-02-17T22:11:38.554Z,7.35
2023-02-17T22:14:10.102Z,5.93
2023-02-17T22:16:38.092Z,7.72
2023-02-17T22:19:07.025Z,6.85
2023-02-17T22:21:36.573Z,7.05
2023-02-17T22:24:04.108Z,7.20
2023-02-17T22:26:33.942Z,7.63
2023-02-17T22:29:00.486Z,8.18
2023-02-17T22:31:29.525Z,7.88
2023-02-17T22:33:57.926Z,8.10
2023-02-17T22:36:25.176Z,7.82
2023-02-17T22:38:52.614Z,8.57
2023-02-17T22:41:21.582Z,8.65
2023-02-17T22:43:49.171Z,8.57
2023-02-17T22:46:18.511Z,8.95
2023-02-17T22:48:47.872Z,6.70
2023-02-17T22:51:18.365Z,7.53
2023-02-17T22:53:45.802Z,7.03
2023-02-17T22:56:12.882Z,7.07
2023-02-17T22:58:40.364Z,7.13
2023-02-17T23:01:13.172Z,6.45
2023-02-17T23:03:40.719Z,7.28
2023-02-17T23:06:12.527Z,7.47
2023-02-17T23:08:39.553Z,7.68
2023-02-17T23:11:11.408Z,6.75
2023-02-17T23:13:38.635Z,7.32
2023-02-17T23:16:09.633Z,8.00
2023-02-17T23:18:39.190Z,7.28
2023-02-17T23:21:12.933Z,7.15
2023-02-17T23:23:40.002Z,7.00
2023-02-17T23:26:09.064Z,7.63
2023-02-17T23:28:39.478Z,8.35
2023-02-17T23:31:10.178Z,7.07
2023-02-17T23:33:39.542Z,7.05
2023-02-17T23:36:10.604Z,8.38
2023-02-17T23:38:40.317Z,7.22
2023-02-17T23:41:10.852Z,7.05
2023-02-17T23:43:41.252Z,6.25
2023-02-17T23:46:10.808Z,7.40
2023-02-17T23:48:39.207Z,7.05
2023-02-17T23:51:05.913Z,7.45
2023-02-17T23:53:32.983Z,8.68
2023-02-17T23:56:11.398Z,8.10
2023-02-17T23:58:41.632Z,7.93
